sensor_id;sensor_type;location;lat;lon;timestamp;P1;durP1;ratioP1;P2;durP2;ratioP2
32106;SDS011;18622;51.998;10.440;2023-04-15T06:04:28;55.12;;;20.32;;
32106;SDS011;18622;51.998;10.440;2023-04-15T06:06:57;57.73;;;22.55;;
32106;SDS011;18622;51.998;10.440;2023-04-15T06:09:25;54.90;;;21.03;;
32106;SDS011;18622;51.998;10.440;2023-04-15T06:11:53;55.88;;;19.92;;
32106;SDS011;18622;51.998;10.440;2023-04-15T06:14:22;58.68;;;23.10;;
32106;SDS011;18622;51.998;10.440;2023-04-15T06:16:50;50.43;;;18.00;;
32106;SDS011;18622;51.998;10.440;2023-04-15T06:19:18;60.20;;;19.83;;
32106;SDS011;18622;51.998;10.440;2023-04-15T06:21:45;55.83;;;19.43;;
32106;SDS011;18622;51.998;10.440;2023-04-15T06:24:13;56.80;;;17.77;;
32106;SDS011;18622;51.998;10.440;2023-04-15T06:26:41;48.53;;;16.53;;
32106;SDS011;18622;51.998;10.440;2023-04-15T06:29:09;48.87;;;16.17;;
32106;SDS011;18622;51.998;10.440;2023-04-15T06:31:37;38.93;;;14.33;;
32106;SDS011;18622;51.998;10.440;2023-04-15T06:34:05;36.47;;;14.07;;
32106;SDS011;18622;51.998;10.440;2023-04-15T06:36:32;38.90;;;13.53;;
32106;SDS011;18622;51.998;10.440;2023-04-15T06:39:00;38.20;;;13.97;;
32106;SDS011;18622;51.998;10.440;2023-04-15T06:41:28;41.60;;;14.57;;
32106;SDS011;18622;51.998;10.440;2023-04-15T06:43:56;45.13;;;15.73;;
32106;SDS011;18622;51.998;10.440;2023-04-15T06:46:24;39.83;;;14.70;;
32106;SDS011;18622;51.998;10.440;2023-04-15T06:48:52;41.23;;;14.73;;
32106;SDS011;18622;51.998;10.440;2023-04-15T06:51:20;40.07;;;14.73;;
32106;SDS011;18622;51.998;10.440;2023-04-15T06:53:48;39.92;;;15.18;;
32106;SDS011;18622;51.998;10.440;2023-04-15T06:56:16;37.60;;;14.67;;
32106;SDS011;18622;51.998;10.440;2023-04-15T06:58:44;40.17;;;15.70;;
32106;SDS011;18622;51.998;10.440;2023-04-15T07:01:12;39.87;;;16.70;;
32106;SDS011;18622;51.998;10.440;2023-04-15T07:03:40;33.40;;;13.30;;
32106;SDS011;18622;51.998;10.440;2023-04-15T07:06:08;32.47;;;13.30;;
32106;SDS011;18622;51.998;10.440;2023-04-15T07:08:35;37.97;;;15.00;;
32106;SDS011;18622;51.998;10.440;2023-04-15T07:11:03;33.38;;;13.28;;
32106;SDS011;18622;51.998;10.440;2023-04-15T07:13:32;34.15;;;12.88;;
32106;SDS011;18622;51.998;10.440;2023-04-15T07:16:00;34.60;;;13.03;;
32106;SDS011;18622;51.998;10.440;2023-04-15T07:18:27;35.67;;;13.27;;
32106;SDS011;18622;51.998;10.440;2023-04-15T07:20:55;30.07;;;12.33;;
32106;SDS011;18622;51.998;10.440;2023-04-15T07:23:23;27.37;;;11.83;;
32106;SDS011;18622;51.998;10.440;2023-04-15T07:25:51;34.77;;;12.53;;
32106;SDS011;18622;51.998;10.440;2023-04-15T07:28:19;32.23;;;12.73;;
32106;SDS011;18622;51.998;10.440;2023-04-15T07:30:47;28.07;;;12.13;;
32106;SDS011;18622;51.998;10.440;2023-04-15T07:33:15;42.53;;;18.62;;
32106;SDS011;18622;51.998;10.440;2023-04-15T07:35:43;24.93;;;11.10;;
32106;SDS011;18622;51.998;10.440;2023-04-15T07:38:11;27.90;;;10.07;;
32106;SDS011;18622;51.998;10.440;2023-04-15T07:40:39;30.50;;;12.03;;
32106;SDS011;18622;51.998;10.440;2023-04-15T07:43:07;31.75;;;15.38;;
32106;SDS011;18622;51.998;10.440;2023-04-15T07:45:34;19.50;;;8.40;;
32106;SDS011;18622;51.998;10.440;2023-04-15T07:48:02;23.60;;;9.60;;
32106;SDS011;18622;51.998;10.440;2023-04-15T07:50:31;21.75;;;8.75;;
32106;SDS011;18622;51.998;10.440;2023-04-15T07:52:59;16.60;;;9.47;;
32106;SDS011;18622;51.998;10.440;2023-04-15T07:55:27;19.47;;;8.10;;
32106;SDS011;18622;51.998;10.440;2023-04-15T07:57:55;19.30;;;8.03;;
32106;SDS011;18622;51.998;10.440;2023-04-15T08:00:23;18.60;;;7.37;;
32106;SDS011;18622;51.998;10.440;2023-04-15T08:02:51;15.53;;;7.90;;
32106;SDS011;18622;51.998;10.440;2023-04-15T08:05:19;18.17;;;8.07;;
32106;SDS011;18622;51.998;10.440;2023-04-15T08:07:47;21.37;;;8.90;;
32106;SDS011;18622;51.998;10.440;2023-04-15T08:10:15;16.00;;;8.30;;
32106;SDS011;18622;51.998;10.440;2023-04-15T08:12:43;14.20;;;7.30;;
32106;SDS011;18622;51.998;10.440;2023-04-15T08:15:12;16.33;;;7.07;;
32106;SDS011;18622;51.998;10.440;2023-04-15T08:17:40;12.83;;;6.30;;
32106;SDS011;18622;51.998;10.440;2023-04-15T08:20:08;13.17;;;6.43;;
32106;SDS011;18622;51.998;10.440;2023-04-15T08:22:36;14.55;;;6.28;;
32106;SDS011;18622;51.998;10.440;2023-04-15T08:25:05;17.17;;;6.30;;
32106;SDS011;18622;51.998;10.440;2023-04-15T08:27:33;14.55;;;7.53;;
32106;SDS011;18622;51.998;10.440;2023-04-15T08:30:01;13.23;;;7.27;;
32106;SDS011;18622;51.998;10.440;2023-04-15T08:32:30;11.37;;;6.10;;
32106;SDS011;18622;51.998;10.440;2023-04-15T08:34:57;11.47;;;5.67;;
32106;SDS011;18622;51.998;10.440;2023-04-15T08:37:25;12.77;;;5.97;;
32106;SDS011;18622;51.998;10.440;2023-04-15T08:39:53;15.90;;;6.80;;
32106;SDS011;18622;51.998;10.440;2023-04-15T08:42:30;13.40;;;6.53;;
32106;SDS011;18622;51.998;10.440;2023-04-15T08:45:00;11.97;;;5.70;;
32106;SDS011;18622;51.998;10.440;2023-04-15T08:47:30;14.33;;;6.07;;
32106;SDS011;18622;51.998;10.440;2023-04-15T08:49:59;10.70;;;5.22;;
32106;SDS011;18622;51.998;10.440;2023-04-15T08:52:30;12.23;;;5.67;;
32106;SDS011;18622;51.998;10.440;2023-04-15T08:54:58;11.07;;;5.50;;
32106;SDS011;18622;51.998;10.440;2023-04-15T08:57:28;8.48;;;4.90;;
32106;SDS011;18622;51.998;10.440;2023-04-15T08:59:57;13.05;;;6.03;;
32106;SDS011;18622;51.998;10.440;2023-04-15T09:02:24;14.67;;;5.97;;
32106;SDS011;18622;51.998;10.440;2023-04-15T09:04:53;12.37;;;5.67;;
32106;SDS011;18622;51.998;10.440;2023-04-15T09:07:21;14.45;;;6.95;;
32106;SDS011;18622;51.998;10.440;2023-04-15T09:09:49;14.00;;;6.00;;
32106;SDS011;18622;51.998;10.440;2023-04-15T09:12:17;15.87;;;6.97;;
32106;SDS011;18622;51.998;10.440;2023-04-15T09:14:45;14.23;;;6.40;;
32106;SDS011;18622;51.998;10.440;2023-04-15T09:17:13;13.33;;;6.20;;
32106;SDS011;18622;51.998;10.440;2023-04-15T09:19:43;14.20;;;5.97;;
32106;SDS011;18622;51.998;10.440;2023-04-15T09:22:11;19.73;;;7.37;;
32106;SDS011;18622;51.998;10.440;2023-04-15T09:24:40;20.37;;;8.70;;
32106;SDS011;18622;51.998;10.440;2023-04-15T09:27:08;16.48;;;8.58;;
32106;SDS011;18622;51.998;10.440;2023-04-15T09:29:36;19.55;;;8.63;;
32106;SDS011;18622;51.998;10.440;2023-04-15T09:32:13;24.03;;;9.13;;
32106;SDS011;18622;51.998;10.440;2023-04-15T09:34:42;24.67;;;11.87;;
32106;SDS011;18622;51.998;10.440;2023-04-15T09:37:10;17.17;;;8.55;;
32106;SDS011;18622;51.998;10.440;2023-04-15T09:39:49;16.17;;;8.58;;
32106;SDS011;18622;51.998;10.440;2023-04-15T09:42:18;17.27;;;8.17;;
32106;SDS011;18622;51.998;10.440;2023-04-15T09:44:47;15.90;;;6.93;;
32106;SDS011;18622;51.998;10.440;2023-04-15T09:47:31;12.10;;;6.58;;
32106;SDS011;18622;51.998;10.440;2023-04-15T09:49:59;16.07;;;7.27;;
32106;SDS011;18622;51.998;10.440;2023-04-15T09:52:27;17.80;;;7.47;;
32106;SDS011;18622;51.998;10.440;2023-04-15T09:54:57;14.45;;;7.12;;
32106;SDS011;18622;51.998;10.440;2023-04-15T09:57:32;14.68;;;6.85;;
32106;SDS011;18622;51.998;10.440;2023-04-15T10:00:07;25.17;;;8.10;;
32106;SDS011;18622;51.998;10.440;2023-04-15T10:02:33;20.80;;;7.90;;
32106;SDS011;18622;51.998;10.440;2023-04-15T10:05:01;14.13;;;6.83;;
32106;SDS011;18622;51.998;10.440;2023-04-15T10:07:29;19.73;;;8.20;;
32106;SDS011;18622;51.998;10.440;2023-04-15T10:09:58;16.35;;;7.53;;
32106;SDS011;18622;51.998;10.440;2023-04-15T10:12:27;23.30;;;9.50;;
32106;SDS011;18622;51.998;10.440;2023-04-15T10:15:02;26.62;;;10.40;;
32106;SDS011;18622;51.998;10.440;2023-04-15T10:17:27;34.65;;;12.25;;
32106;SDS011;18622;51.998;10.440;2023-04-15T10:19:58;39.23;;;12.88;;
32106;SDS011;18622;51.998;10.440;2023-04-15T10:22:28;35.90;;;12.70;;
32106;SDS011;18622;51.998;10.440;2023-04-15T10:24:57;40.63;;;12.65;;
32106;SDS011;18622;51.998;10.440;2023-04-15T10:27:26;38.88;;;12.10;;
32106;SDS011;18622;51.998;10.440;2023-04-15T10:29:54;34.67;;;12.00;;
32106;SDS011;18622;51.998;10.440;2023-04-15T10:32:23;42.47;;;12.50;;
32106;SDS011;18622;51.998;10.440;2023-04-15T10:34:51;49.85;;;14.73;;
32106;SDS011;18622;51.998;10.440;2023-04-15T10:37:33;51.73;;;17.00;;
32106;SDS011;18622;51.998;10.440;2023-04-15T10:39:50;57.13;;;16.55;;
32106;SDS011;18622;51.998;10.440;2023-04-15T10:42:18;58.10;;;15.93;;
32106;SDS011;18622;51.998;10.440;2023-04-15T10:44:49;43.03;;;14.50;;
32106;SDS011;18622;51.998;10.440;2023-04-15T10:47:19;50.83;;;15.50;;
32106;SDS011;18622;51.998;10.440;2023-04-15T10:49:48;57.83;;;16.10;;
32106;SDS011;18622;51.998;10.440;2023-04-15T10:52:23;49.40;;;15.43;;
32106;SDS011;18622;51.998;10.440;2023-04-15T10:55:02;53.37;;;17.43;;
32106;SDS011;18622;51.998;10.440;2023-04-15T10:57:36;52.90;;;15.03;;
32106;SDS011;18622;51.998;10.440;2023-04-15T11:02:39;62.80;;;16.80;;
32106;SDS011;18622;51.998;10.440;2023-04-15T11:05:09;75.00;;;16.60;;
32106;SDS011;18622;51.998;10.440;2023-04-15T11:07:45;72.80;;;18.52;;
32106;SDS011;18622;51.998;10.440;2023-04-15T11:12:50;76.30;;;19.23;;
32106;SDS011;18622;51.998;10.440;2023-04-15T11:15:36;70.47;;;19.67;;
32106;SDS011;18622;51.998;10.440;2023-04-15T11:18:10;68.50;;;18.15;;
32106;SDS011;18622;51.998;10.440;2023-04-15T11:20:49;116.70;;;22.17;;
32106;SDS011;18622;51.998;10.440;2023-04-15T11:23:30;81.57;;;20.27;;
32106;SDS011;18622;51.998;10.440;2023-04-15T11:26:03;85.33;;;21.07;;
32106;SDS011;18622;51.998;10.440;2023-04-15T11:28:34;88.90;;;22.57;;
32106;SDS011;18622;51.998;10.440;2023-04-15T11:31:07;82.95;;;21.05;;
32106;SDS011;18622;51.998;10.440;2023-04-15T11:33:46;77.70;;;20.73;;
32106;SDS011;18622;51.998;10.440;2023-04-15T11:36:28;96.07;;;22.30;;
32106;SDS011;18622;51.998;10.440;2023-04-15T11:38:58;103.63;;;24.10;;
32106;SDS011;18622;51.998;10.440;2023-04-15T11:41:26;132.90;;;28.60;;
32106;SDS011;18622;51.998;10.440;2023-04-15T11:43:54;114.47;;;28.90;;
32106;SDS011;18622;51.998;10.440;2023-04-15T11:46:27;104.13;;;27.17;;
32106;SDS011;18622;51.998;10.440;2023-04-15T11:48:57;137.43;;;35.97;;
32106;SDS011;18622;51.998;10.440;2023-04-15T11:51:25;174.80;;;41.67;;
32106;SDS011;18622;51.998;10.440;2023-04-15T11:53:54;162.97;;;41.20;;
32106;SDS011;18622;51.998;10.440;2023-04-15T11:56:22;129.93;;;38.53;;
32106;SDS011;18622;51.998;10.440;2023-04-15T11:58:52;147.60;;;39.20;;
32106;SDS011;18622;51.998;10.440;2023-04-15T12:01:33;129.63;;;44.37;;
32106;SDS011;18622;51.998;10.440;2023-04-15T12:04:01;137.60;;;44.97;;
32106;SDS011;18622;51.998;10.440;2023-04-15T12:06:37;113.83;;;41.03;;
32106;SDS011;18622;51.998;10.440;2023-04-15T12:11:44;95.93;;;32.03;;
32106;SDS011;18622;51.998;10.440;2023-04-15T12:14:28;71.80;;;27.77;;
32106;SDS011;18622;51.998;10.440;2023-04-15T12:16:58;67.27;;;24.67;;
32106;SDS011;18622;51.998;10.440;2023-04-15T12:19:28;70.33;;;25.00;;
32106;SDS011;18622;51.998;10.440;2023-04-15T12:22:00;65.08;;;24.70;;
32106;SDS011;18622;51.998;10.440;2023-04-15T12:24:32;62.62;;;24.45;;
32106;SDS011;18622;51.998;10.440;2023-04-15T12:27:02;56.47;;;23.80;;
32106;SDS011;18622;51.998;10.440;2023-04-15T12:29:33;67.50;;;26.12;;
32106;SDS011;18622;51.998;10.440;2023-04-15T12:32:06;70.37;;;28.27;;
32106;SDS011;18622;51.998;10.440;2023-04-15T12:34:37;75.67;;;26.17;;
32106;SDS011;18622;51.998;10.440;2023-04-15T12:39:35;56.95;;;24.25;;
32106;SDS011;18622;51.998;10.440;2023-04-15T12:42:05;59.70;;;24.72;;
32106;SDS011;18622;51.998;10.440;2023-04-15T12:44:34;80.90;;;31.90;;
32106;SDS011;18622;51.998;10.440;2023-04-15T12:47:03;64.67;;;25.45;;
32106;SDS011;18622;51.998;10.440;2023-04-15T12:49:31;70.17;;;26.82;;
32106;SDS011;18622;51.998;10.440;2023-04-15T12:52:00;76.42;;;28.10;;
32106;SDS011;18622;51.998;10.440;2023-04-15T12:54:29;63.38;;;26.17;;
32106;SDS011;18622;51.998;10.440;2023-04-15T12:56:57;92.27;;;45.58;;
32106;SDS011;18622;51.998;10.440;2023-04-15T12:59:25;60.75;;;27.55;;
32106;SDS011;18622;51.998;10.440;2023-04-15T13:01:54;78.37;;;29.73;;
32106;SDS011;18622;51.998;10.440;2023-04-15T13:04:22;65.13;;;28.13;;
32106;SDS011;18622;51.998;10.440;2023-04-15T13:06:49;79.70;;;33.27;;
32106;SDS011;18622;51.998;10.440;2023-04-15T13:09:17;76.13;;;33.67;;
32106;SDS011;18622;51.998;10.440;2023-04-15T13:11:45;64.93;;;27.60;;
32106;SDS011;18622;51.998;10.440;2023-04-15T13:14:13;86.17;;;34.90;;
32106;SDS011;18622;51.998;10.440;2023-04-15T13:16:41;66.77;;;28.80;;
32106;SDS011;18622;51.998;10.440;2023-04-15T13:19:11;76.50;;;42.75;;
32106;SDS011;18622;51.998;10.440;2023-04-15T13:21:39;70.30;;;28.63;;
32106;SDS011;18622;51.998;10.440;2023-04-15T13:24:07;68.43;;;30.03;;
32106;SDS011;18622;51.998;10.440;2023-04-15T13:26:35;68.27;;;30.60;;
32106;SDS011;18622;51.998;10.440;2023-04-15T13:29:03;80.10;;;34.23;;
32106;SDS011;18622;51.998;10.440;2023-04-15T13:31:31;66.43;;;34.00;;
32106;SDS011;18622;51.998;10.440;2023-04-15T13:33:59;72.50;;;31.27;;
32106;SDS011;18622;51.998;10.440;2023-04-15T13:36:27;73.40;;;30.93;;
32106;SDS011;18622;51.998;10.440;2023-04-15T13:38:55;64.63;;;30.37;;
32106;SDS011;18622;51.998;10.440;2023-04-15T13:41:25;72.85;;;32.20;;
32106;SDS011;18622;51.998;10.440;2023-04-15T13:43:53;60.53;;;29.33;;
32106;SDS011;18622;51.998;10.440;2023-04-15T13:46:20;59.10;;;29.50;;
32106;SDS011;18622;51.998;10.440;2023-04-15T13:48:48;74.30;;;32.20;;
32106;SDS011;18622;51.998;10.440;2023-04-15T13:51:16;68.03;;;32.73;;
32106;SDS011;18622;51.998;10.440;2023-04-15T13:53:44;86.53;;;39.57;;
32106;SDS011;18622;51.998;10.440;2023-04-15T13:56:12;81.27;;;36.70;;
32106;SDS011;18622;51.998;10.440;2023-04-15T13:58:40;96.60;;;41.80;;
32106;SDS011;18622;51.998;10.440;2023-04-15T14:01:07;79.80;;;38.20;;
32106;SDS011;18622;51.998;10.440;2023-04-15T14:03:35;69.77;;;34.60;;
32106;SDS011;18622;51.998;10.440;2023-04-15T14:06:04;65.40;;;34.13;;
32106;SDS011;18622;51.998;10.440;2023-04-15T14:08:32;75.45;;;32.85;;
32106;SDS011;18622;51.998;10.440;2023-04-15T14:11:00;68.83;;;34.60;;
32106;SDS011;18622;51.998;10.440;2023-04-15T14:13:27;69.10;;;35.03;;
32106;SDS011;18622;51.998;10.440;2023-04-15T14:15:55;72.00;;;35.30;;
32106;SDS011;18622;51.998;10.440;2023-04-15T14:18:23;67.23;;;36.63;;
32106;SDS011;18622;51.998;10.440;2023-04-15T14:20:51;74.97;;;36.17;;
32106;SDS011;18622;51.998;10.440;2023-04-15T14:23:19;80.47;;;38.53;;
32106;SDS011;18622;51.998;10.440;2023-04-15T14:25:47;75.17;;;38.13;;
32106;SDS011;18622;51.998;10.440;2023-04-15T14:28:15;75.40;;;37.00;;
32106;SDS011;18622;51.998;10.440;2023-04-15T14:30:43;80.80;;;37.80;;
32106;SDS011;18622;51.998;10.440;2023-04-15T14:33:11;84.50;;;36.53;;
32106;SDS011;18622;51.998;10.440;2023-04-15T14:35:39;69.43;;;34.13;;
32106;SDS011;18622;51.998;10.440;2023-04-15T14:38:07;77.57;;;34.73;;
32106;SDS011;18622;51.998;10.440;2023-04-15T14:40:35;77.15;;;33.78;;
32106;SDS011;18622;51.998;10.440;2023-04-15T14:43:03;70.63;;;32.97;;
32106;SDS011;18622;51.998;10.440;2023-04-15T14:45:32;75.37;;;33.20;;
32106;SDS011;18622;51.998;10.440;2023-04-15T14:48:01;76.90;;;33.20;;
32106;SDS011;18622;51.998;10.440;2023-04-15T14:50:29;81.93;;;34.43;;
32106;SDS011;18622;51.998;10.440;2023-04-15T14:52:57;82.93;;;34.17;;
32106;SDS011;18622;51.998;10.440;2023-04-15T14:55:26;81.82;;;33.05;;
32106;SDS011;18622;51.998;10.440;2023-04-15T14:57:54;89.10;;;32.23;;
32106;SDS011;18622;51.998;10.440;2023-04-15T15:00:22;98.70;;;34.30;;
32106;SDS011;18622;51.998;10.440;2023-04-15T15:02:50;96.80;;;34.83;;
32106;SDS011;18622;51.998;10.440;2023-04-15T15:05:17;83.07;;;33.30;;
32106;SDS011;18622;51.998;10.440;2023-04-15T15:07:45;89.63;;;34.27;;
32106;SDS011;18622;51.998;10.440;2023-04-15T15:10:13;91.27;;;34.57;;
32106;SDS011;18622;51.998;10.440;2023-04-15T15:12:41;98.13;;;35.23;;
32106;SDS011;18622;51.998;10.440;2023-04-15T15:15:09;104.60;;;35.40;;
32106;SDS011;18622;51.998;10.440;2023-04-15T15:17:37;99.37;;;37.20;;
32106;SDS011;18622;51.998;10.440;2023-04-15T15:20:05;102.13;;;38.00;;
32106;SDS011;18622;51.998;10.440;2023-04-15T15:22:33;98.07;;;37.13;;
32106;SDS011;18622;51.998;10.440;2023-04-15T15:25:01;108.20;;;35.93;;
32106;SDS011;18622;51.998;10.440;2023-04-15T15:27:28;100.00;;;35.30;;
32106;SDS011;18622;51.998;10.440;2023-04-15T15:29:57;107.13;;;36.07;;
32106;SDS011;18622;51.998;10.440;2023-04-15T15:32:25;113.33;;;38.57;;
32106;SDS011;18622;51.998;10.440;2023-04-15T15:34:53;103.47;;;38.33;;
32106;SDS011;18622;51.998;10.440;2023-04-15T15:37:21;116.30;;;39.63;;
32106;SDS011;18622;51.998;10.440;2023-04-15T15:39:49;121.57;;;36.73;;
32106;SDS011;18622;51.998;10.440;2023-04-15T15:42:18;111.37;;;37.00;;
32106;SDS011;18622;51.998;10.440;2023-04-15T15:44:46;107.77;;;37.43;;
32106;SDS011;18622;51.998;10.440;2023-04-15T15:47:14;102.93;;;36.47;;
32106;SDS011;18622;51.998;10.440;2023-04-15T15:49:42;106.97;;;37.27;;
32106;SDS011;18622;51.998;10.440;2023-04-15T15:52:11;89.42;;;34.58;;
32106;SDS011;18622;51.998;10.440;2023-04-15T15:54:40;108.40;;;36.50;;
32106;SDS011;18622;51.998;10.440;2023-04-15T15:57:07;111.10;;;37.13;;
32106;SDS011;18622;51.998;10.440;2023-04-15T15:59:35;107.77;;;36.53;;
32106;SDS011;18622;51.998;10.440;2023-04-15T16:02:09;112.15;;;37.63;;
32106;SDS011;18622;51.998;10.440;2023-04-15T16:04:37;136.35;;;37.55;;
32106;SDS011;18622;51.998;10.440;2023-04-15T16:07:08;120.95;;;35.88;;
32106;SDS011;18622;51.998;10.440;2023-04-15T16:09:36;136.73;;;39.00;;
32106;SDS011;18622;51.998;10.440;2023-04-15T16:12:05;154.27;;;39.10;;
32106;SDS011;18622;51.998;10.440;2023-04-15T16:14:33;147.00;;;38.80;;
32106;SDS011;18622;51.998;10.440;2023-04-15T16:17:01;107.90;;;34.27;;
32106;SDS011;18622;51.998;10.440;2023-04-15T16:19:29;102.60;;;32.57;;
32106;SDS011;18622;51.998;10.440;2023-04-15T16:21:57;133.43;;;35.80;;
32106;SDS011;18622;51.998;10.440;2023-04-15T16:24:27;94.90;;;32.42;;
32106;SDS011;18622;51.998;10.440;2023-04-15T16:26:55;90.53;;;32.87;;
32106;SDS011;18622;51.998;10.440;2023-04-15T16:29:24;83.67;;;33.13;;
32106;SDS011;18622;51.998;10.440;2023-04-15T16:31:53;110.03;;;37.63;;
32106;SDS011;18622;51.998;10.440;2023-04-15T16:34:21;79.30;;;30.05;;
32106;SDS011;18622;51.998;10.440;2023-04-15T16:36:49;88.33;;;30.52;;
32106;SDS011;18622;51.998;10.440;2023-04-15T16:39:17;88.13;;;30.60;;
32106;SDS011;18622;51.998;10.440;2023-04-15T16:41:45;87.53;;;31.07;;
32106;SDS011;18622;51.998;10.440;2023-04-15T16:44:13;98.30;;;30.57;;
32106;SDS011;18622;51.998;10.440;2023-04-15T16:46:41;70.20;;;29.85;;
32106;SDS011;18622;51.998;10.440;2023-04-15T16:49:09;79.70;;;28.50;;
32106;SDS011;18622;51.998;10.440;2023-04-15T16:51:36;82.67;;;34.90;;
32106;SDS011;18622;51.998;10.440;2023-04-15T16:54:04;75.37;;;30.57;;
32106;SDS011;18622;51.998;10.440;2023-04-15T16:56:32;120.00;;;46.83;;
32106;SDS011;18622;51.998;10.440;2023-04-15T16:59:00;105.80;;;42.13;;
32106;SDS011;18622;51.998;10.440;2023-04-15T17:01:28;119.30;;;50.20;;
32106;SDS011;18622;51.998;10.440;2023-04-15T17:03:56;126.47;;;47.50;;
32106;SDS011;18622;51.998;10.440;2023-04-15T17:06:24;138.80;;;56.53;;
32106;SDS011;18622;51.998;10.440;2023-04-15T17:08:52;178.73;;;75.10;;
32106;SDS011;18622;51.998;10.440;2023-04-15T17:11:19;392.50;;;200.00;;
32106;SDS011;18622;51.998;10.440;2023-04-15T17:13:47;160.97;;;68.47;;
32106;SDS011;18622;51.998;10.440;2023-04-15T17:16:16;84.15;;;35.38;;
32106;SDS011;18622;51.998;10.440;2023-04-15T17:18:44;73.73;;;33.23;;
32106;SDS011;18622;51.998;10.440;2023-04-15T17:21:12;76.27;;;31.07;;
32106;SDS011;18622;51.998;10.440;2023-04-15T17:23:40;100.50;;;48.87;;
32106;SDS011;18622;51.998;10.440;2023-04-15T17:26:08;73.90;;;30.53;;
32106;SDS011;18622;51.998;10.440;2023-04-15T17:28:36;60.40;;;29.93;;
32106;SDS011;18622;51.998;10.440;2023-04-15T17:31:04;70.97;;;28.90;;
32106;SDS011;18622;51.998;10.440;2023-04-15T17:33:32;62.47;;;25.80;;
32106;SDS011;18622;51.998;10.440;2023-04-15T17:36:00;58.97;;;25.77;;
32106;SDS011;18622;51.998;10.440;2023-04-15T17:38:28;61.47;;;28.20;;
32106;SDS011;18622;51.998;10.440;2023-04-15T17:40:55;70.47;;;28.87;;
32106;SDS011;18622;51.998;10.440;2023-04-15T17:43:23;71.95;;;29.75;;
32106;SDS011;18622;51.998;10.440;2023-04-15T17:45:51;67.60;;;29.60;;
32106;SDS011;18622;51.998;10.440;2023-04-15T17:48:19;70.20;;;29.73;;
32106;SDS011;18622;51.998;10.440;2023-04-15T17:50:47;69.03;;;28.23;;
32106;SDS011;18622;51.998;10.440;2023-04-15T17:53:15;69.73;;;27.83;;
32106;SDS011;18622;51.998;10.440;2023-04-15T17:55:42;69.73;;;28.17;;
32106;SDS011;18622;51.998;10.440;2023-04-15T17:58:11;67.72;;;29.37;;
32106;SDS011;18622;51.998;10.440;2023-04-15T18:00:39;65.90;;;27.83;;
32106;SDS011;18622;51.998;10.440;2023-04-15T18:03:06;75.73;;;28.87;;
32106;SDS011;18622;51.998;10.440;2023-04-15T18:05:34;65.53;;;29.30;;
32106;SDS011;18622;51.998;10.440;2023-04-15T18:08:02;67.10;;;28.20;;
32106;SDS011;18622;51.998;10.440;2023-04-15T18:10:30;56.40;;;26.70;;
32106;SDS011;18622;51.998;10.440;2023-04-15T18:13:00;67.90;;;29.52;;
32106;SDS011;18622;51.998;10.440;2023-04-15T18:15:28;85.80;;;29.18;;
32106;SDS011;18622;51.998;10.440;2023-04-15T18:17:57;65.87;;;28.75;;
32106;SDS011;18622;51.998;10.440;2023-04-15T18:20:25;71.92;;;29.10;;
32106;SDS011;18622;51.998;10.440;2023-04-15T18:22:53;65.83;;;29.63;;
32106;SDS011;18622;51.998;10.440;2023-04-15T18:25:21;61.40;;;29.20;;
32106;SDS011;18622;51.998;10.440;2023-04-15T18:27:49;63.80;;;30.07;;
32106;SDS011;18622;51.998;10.440;2023-04-15T18:30:17;63.00;;;33.30;;
32106;SDS011;18622;51.998;10.440;2023-04-15T18:32:44;72.97;;;32.30;;
32106;SDS011;18622;51.998;10.440;2023-04-15T18:35:13;66.30;;;33.30;;
32106;SDS011;18622;51.998;10.440;2023-04-15T18:37:42;86.13;;;32.90;;
32106;SDS011;18622;51.998;10.440;2023-04-15T18:40:10;84.13;;;32.80;;
32106;SDS011;18622;51.998;10.440;2023-04-15T18:42:38;72.27;;;31.23;;
32106;SDS011;18622;51.998;10.440;2023-04-15T18:45:06;95.07;;;35.83;;
32106;SDS011;18622;51.998;10.440;2023-04-15T18:47:34;102.20;;;36.60;;
32106;SDS011;18622;51.998;10.440;2023-04-15T18:50:02;87.93;;;33.87;;
32106;SDS011;18622;51.998;10.440;2023-04-15T18:52:30;91.67;;;32.43;;
32106;SDS011;18622;51.998;10.440;2023-04-15T18:54:58;91.25;;;32.58;;
32106;SDS011;18622;51.998;10.440;2023-04-15T18:57:33;63.45;;;30.62;;
32106;SDS011;18622;51.998;10.440;2023-04-15T18:59:58;82.20;;;31.07;;
32106;SDS011;18622;51.998;10.440;2023-04-15T19:02:26;70.43;;;30.73;;
32106;SDS011;18622;51.998;10.440;2023-04-15T19:04:54;60.23;;;31.30;;
32106;SDS011;18622;51.998;10.440;2023-04-15T19:07:22;68.00;;;33.30;;
32106;SDS011;18622;51.998;10.440;2023-04-15T19:09:50;63.43;;;29.73;;
32106;SDS011;18622;51.998;10.440;2023-04-15T19:12:18;59.48;;;27.80;;
32106;SDS011;18622;51.998;10.440;2023-04-15T19:14:46;42.63;;;22.87;;
32106;SDS011;18622;51.998;10.440;2023-04-15T19:17:13;43.23;;;21.90;;
32106;SDS011;18622;51.998;10.440;2023-04-15T19:19:41;43.03;;;20.73;;
32106;SDS011;18622;51.998;10.440;2023-04-15T19:22:09;39.00;;;20.13;;
32106;SDS011;18622;51.998;10.440;2023-04-15T19:24:37;45.03;;;21.70;;
32106;SDS011;18622;51.998;10.440;2023-04-15T19:27:05;38.97;;;19.73;;
32106;SDS011;18622;51.998;10.440;2023-04-15T19:29:33;43.13;;;22.67;;
32106;SDS011;18622;51.998;10.440;2023-04-15T19:32:01;38.37;;;19.90;;
32106;SDS011;18622;51.998;10.440;2023-04-15T19:34:28;32.47;;;19.57;;
32106;SDS011;18622;51.998;10.440;2023-04-15T19:36:56;37.57;;;20.17;;
32106;SDS011;18622;51.998;10.440;2023-04-15T19:39:24;50.73;;;20.67;;
32106;SDS011;18622;51.998;10.440;2023-04-15T19:41:52;50.37;;;24.10;;
32106;SDS011;18622;51.998;10.440;2023-04-15T19:44:20;48.73;;;24.37;;
32106;SDS011;18622;51.998;10.440;2023-04-15T19:46:48;52.43;;;25.50;;
32106;SDS011;18622;51.998;10.440;2023-04-15T19:49:18;53.40;;;25.85;;
32106;SDS011;18622;51.998;10.440;2023-04-15T19:51:48;54.37;;;26.57;;
32106;SDS011;18622;51.998;10.440;2023-04-15T19:54:16;52.17;;;24.18;;
32106;SDS011;18622;51.998;10.440;2023-04-15T19:56:44;42.53;;;22.03;;
32106;SDS011;18622;51.998;10.440;2023-04-15T19:59:11;42.90;;;21.03;;
32106;SDS011;18622;51.998;10.440;2023-04-15T20:01:39;53.23;;;22.27;;
32106;SDS011;18622;51.998;10.440;2023-04-15T20:04:07;45.43;;;21.90;;
32106;SDS011;18622;51.998;10.440;2023-04-15T20:06:35;53.77;;;22.47;;
32106;SDS011;18622;51.998;10.440;2023-04-15T20:09:03;49.37;;;23.17;;
32106;SDS011;18622;51.998;10.440;2023-04-15T20:11:30;46.73;;;22.47;;
32106;SDS011;18622;51.998;10.440;2023-04-15T20:13:58;48.33;;;22.93;;
32106;SDS011;18622;51.998;10.440;2023-04-15T20:16:26;52.37;;;23.17;;
32106;SDS011;18622;51.998;10.440;2023-04-15T20:18:55;44.33;;;22.45;;
32106;SDS011;18622;51.998;10.440;2023-04-15T20:21:24;46.00;;;23.40;;
32106;SDS011;18622;51.998;10.440;2023-04-15T20:23:52;42.77;;;21.97;;
32106;SDS011;18622;51.998;10.440;2023-04-15T20:26:20;46.47;;;22.10;;
32106;SDS011;18622;51.998;10.440;2023-04-15T20:28:50;41.75;;;22.93;;
32106;SDS011;18622;51.998;10.440;2023-04-15T20:31:17;40.87;;;21.63;;